Time;durP1;ratioP1;P1;durP2;ratioP2;P2;SDS_P1;SDS_P2;PMS_P1;PMS_P2;Temp;Humidity;BMP_temperature;BMP_pressure;BME280_temperature;BME280_humidity;BME280_pressure;Samples;Min_cycle;Max_cycle;Signal;HPM_P1;HPM_P2
2024/04/07 00:00:02;;;;;;;17.77;3.95;;;13.50;99.90;;;;;;5055127;28;20041;-62
2024/04/07 00:02:33;;;;;;;16.98;3.95;;;13.50;99.90;;;;;;5054903;28;20447;-63
2024/04/07 00:05:01;;;;;;;18.38;3.92;;;13.50;99.90;;;;;;5054780;28;20069;-63
2024/04/07 00:07:27;;;;;;;19.08;3.72;;;13.50;99.90;;;;;;5054412;28;20048;-64
2024/04/07 00:09:53;;;;;;;22.25;4.43;;;13.40;99.90;;;;;;5054380;28;20041;-63
2024/04/07 00:12:20;;;;;;;20.00;3.60;;;13.40;99.90;;;;;;5054610;28;20044;-62
2024/04/07 00:14:46;;;;;;;18.42;4.05;;;13.40;99.90;;;;;;5054549;28;20485;-60
2024/04/07 00:17:12;;;;;;;21.83;4.53;;;13.40;99.90;;;;;;5054301;28;20053;-63
2024/04/07 00:19:40;;;;;;;21.27;4.47;;;13.40;99.90;;;;;;5054692;28;20037;-63
2024/04/07 00:22:05;;;;;;;25.15;5.45;;;13.30;99.90;;;;;;5054406;28;20045;-64
2024/04/07 00:24:31;;;;;;;17.40;3.85;;;13.20;99.90;;;;;;5054368;28;20048;-63
2024/04/07 00:26:57;;;;;;;20.17;3.75;;;13.20;99.90;;;;;;5054236;28;20378;-64
2024/04/07 00:29:23;;;;;;;21.92;4.50;;;13.20;99.90;;;;;;5054285;28;20041;-64
2024/04/07 00:31:49;;;;;;;17.58;3.80;;;13.20;99.90;;;;;;5037661;28;20041;-63
2024/04/07 00:34:14;;;;;;;22.10;3.80;;;13.10;99.90;;;;;;5054306;28;20377;-63
2024/04/07 00:36:40;;;;;;;17.75;3.70;;;13.10;99.90;;;;;;5054380;28;20094;-64
2024/04/07 00:39:08;;;;;;;18.55;3.53;;;13.10;99.90;;;;;;5054234;28;20041;-63
2024/04/07 00:41:33;;;;;;;24.13;4.45;;;13.00;99.90;;;;;;5054195;28;20048;-63
2024/04/07 00:43:59;;;;;;;21.20;4.25;;;13.00;99.90;;;;;;5054281;28;20045;-63
2024/04/07 00:46:25;;;;;;;16.40;3.50;;;13.00;99.90;;;;;;5053759;28;20112;-63
2024/04/07 00:48:51;;;;;;;20.95;4.60;;;12.90;99.90;;;;;;5070446;28;20433;-64
2024/04/07 00:51:16;;;;;;;14.90;3.90;;;12.90;99.90;;;;;;5053568;28;20098;-64
2024/04/07 00:53:42;;;;;;;16.67;3.97;;;12.90;99.90;;;;;;5053499;28;20040;-66
2024/04/07 00:56:08;;;;;;;17.85;4.20;;;12.80;99.90;;;;;;5053418;28;20482;-64
2024/04/07 00:58:34;;;;;;;16.50;4.03;;;12.80;99.90;;;;;;5053431;28;20441;-65
2024/04/07 01:00:59;;;;;;;19.38;3.80;;;12.80;99.90;;;;;;5053410;28;20040;-63
2024/04/07 01:03:25;;;;;;;23.35;3.80;;;12.80;99.90;;;;;;5053915;28;20064;-63
2024/04/07 01:05:51;;;;;;;17.35;3.60;;;12.70;99.90;;;;;;5053469;28;20394;-63
2024/04/07 01:08:17;;;;;;;25.80;4.30;;;12.70;99.90;;;;;;5037004;28;20505;-63
2024/04/07 01:10:42;;;;;;;22.70;4.30;;;12.70;99.90;;;;;;5053808;28;20120;-63
2024/04/07 01:13:08;;;;;;;27.60;4.93;;;12.70;99.90;;;;;;5053205;28;20433;-64
2024/04/07 01:15:34;;;;;;;20.90;3.90;;;12.60;99.90;;;;;;5053423;28;20072;-64
2024/04/07 01:18:00;;;;;;;19.02;4.30;;;12.60;99.90;;;;;;5036557;28;20057;-64
2024/04/07 01:20:26;;;;;;;23.90;4.47;;;12.60;99.90;;;;;;5053489;28;20037;-64
2024/04/07 01:22:51;;;;;;;24.08;4.18;;;12.60;99.90;;;;;;5036483;28;20135;-63
2024/04/07 01:25:17;;;;;;;24.85;4.25;;;12.60;99.90;;;;;;5036669;28;20037;-63
2024/04/07 01:27:43;;;;;;;20.63;4.20;;;12.60;99.90;;;;;;5036338;28;20040;-64
2024/04/07 01:30:09;;;;;;;21.52;3.72;;;12.60;99.90;;;;;;5053123;28;20040;-64
2024/04/07 01:32:35;;;;;;;18.85;3.58;;;12.60;99.90;;;;;;5052748;28;20049;-63
2024/04/07 01:35:00;;;;;;;24.33;4.28;;;12.60;99.90;;;;;;5052697;28;20162;-63
2024/04/07 01:37:26;;;;;;;24.55;4.80;;;12.70;99.90;;;;;;5052783;28;20052;-63
2024/04/07 01:39:52;;;;;;;23.65;4.43;;;12.70;99.90;;;;;;5052850;28;20076;-63
2024/04/07 01:42:18;;;;;;;23.88;4.15;;;12.60;99.90;;;;;;5036331;28;20052;-63
2024/04/07 01:44:43;;;;;;;22.80;4.55;;;12.60;99.90;;;;;;5053000;28;20383;-63
2024/04/07 01:47:09;;;;;;;24.65;4.30;;;12.60;99.90;;;;;;5052942;28;20122;-64
2024/04/07 01:49:35;;;;;;;22.88;4.60;;;12.50;99.90;;;;;;5052820;28;20041;-64
2024/04/07 01:52:01;;;;;;;18.25;3.60;;;12.50;99.90;;;;;;5052906;28;20037;-64
2024/04/07 01:54:32;;;;;;;20.85;4.30;;;12.50;99.90;;;;;;5052609;28;20041;-62
2024/04/07 01:56:58;;;;;;;23.35;4.25;;;12.50;99.90;;;;;;5052719;28;20486;-62
2024/04/07 01:59:24;;;;;;;24.00;4.28;;;12.50;99.90;;;;;;5052671;28;20061;-62
2024/04/07 02:01:50;;;;;;;17.88;4.03;;;12.50;99.90;;;;;;5052628;28;20132;-62
2024/04/07 02:04:15;;;;;;;19.25;3.10;;;12.40;99.90;;;;;;5052896;28;20033;-62
2024/04/07 02:06:42;;;;;;;20.58;3.85;;;12.40;99.90;;;;;;5052226;28;20033;-62
2024/04/07 02:09:09;;;;;;;18.88;3.63;;;12.40;99.90;;;;;;5052579;28;20041;-62
2024/04/07 02:11:34;;;;;;;23.23;5.10;;;12.40;99.90;;;;;;5035400;28;20122;-62
2024/04/07 02:14:00;;;;;;;24.67;4.10;;;12.40;99.90;;;;;;5052079;28;20053;-62
2024/04/07 02:16:26;;;;;;;24.77;4.47;;;12.40;99.90;;;;;;5052447;28;20095;-66
2024/04/07 02:18:52;;;;;;;26.45;4.63;;;12.40;99.90;;;;;;5052572;28;20049;-67
2024/04/07 02:21:18;;;;;;;21.42;4.25;;;12.40;99.90;;;;;;5052640;28;20048;-66
2024/04/07 02:23:44;;;;;;;20.55;4.35;;;12.40;99.90;;;;;;5036014;28;20033;-66
2024/04/07 02:26:10;;;;;;;20.95;3.83;;;12.40;99.90;;;;;;5052146;28;20036;-66
2024/04/07 02:28:37;;;;;;;22.55;4.35;;;12.40;99.90;;;;;;5052537;28;20039;-67
2024/04/07 02:31:03;;;;;;;22.52;4.40;;;12.40;99.90;;;;;;5035591;28;20049;-66
2024/04/07 02:33:29;;;;;;;16.73;3.97;;;12.40;99.90;;;;;;5052223;28;20037;-66
2024/04/07 02:35:55;;;;;;;17.83;4.30;;;12.40;99.90;;;;;;5052388;28;20481;-66
2024/04/07 02:38:20;;;;;;;25.50;4.43;;;12.40;99.90;;;;;;5052481;28;20049;-66
2024/04/07 02:40:46;;;;;;;19.08;3.63;;;12.40;99.90;;;;;;5035443;28;20059;-61
2024/04/07 02:43:12;;;;;;;23.17;4.20;;;12.40;99.90;;;;;;5035539;28;20378;-61
2024/04/07 02:48:23;;;;;;;19.70;4.18;;;12.40;99.90;;;;;;5051998;28;20037;-61
2024/04/07 02:50:48;;;;;;;23.80;4.75;;;12.40;99.90;;;;;;5052367;28;20059;-61
2024/04/07 02:53:14;;;;;;;23.38;3.55;;;12.30;99.90;;;;;;5052404;28;20052;-61
2024/04/07 02:55:40;;;;;;;21.02;4.15;;;12.30;99.90;;;;;;5051676;28;20355;-61
2024/04/07 02:58:06;;;;;;;21.85;4.40;;;12.30;99.90;;;;;;5052143;28;20033;-61
2024/04/07 03:00:32;;;;;;;21.55;5.10;;;12.20;99.90;;;;;;5052136;28;20072;-60
2024/04/07 03:02:57;;;;;;;19.90;3.92;;;12.20;99.90;;;;;;5052292;28;20075;-61
2024/04/07 03:05:23;;;;;;;23.23;3.90;;;12.20;99.90;;;;;;5051956;28;20037;-62
2024/04/07 03:07:49;;;;;;;23.73;4.18;;;12.20;99.90;;;;;;5051249;28;20087;-64
2024/04/07 03:10:16;;;;;;;15.93;3.40;;;12.20;99.90;;;;;;5051869;28;20052;-63
2024/04/07 03:12:42;;;;;;;17.83;3.40;;;12.20;99.90;;;;;;5051461;28;20041;-63
2024/04/07 03:15:07;;;;;;;22.08;4.35;;;12.20;99.90;;;;;;5051950;28;20079;-64
2024/04/07 03:17:33;;;;;;;22.42;4.20;;;12.20;99.90;;;;;;5051361;28;20053;-63
2024/04/07 03:19:59;;;;;;;21.33;4.43;;;12.20;99.90;;;;;;5051626;28;20060;-64
2024/04/07 03:22:25;;;;;;;28.02;6.13;;;12.10;99.90;;;;;;5035128;28;20056;-63
2024/04/07 03:24:50;;;;;;;19.35;4.55;;;12.10;99.90;;;;;;5035306;28;20467;-65
2024/04/07 03:27:16;;;;;;;23.17;4.55;;;12.20;99.90;;;;;;5055293;28;20450;-63
2024/04/07 03:29:42;;;;;;;23.52;4.10;;;12.10;99.90;;;;;;5055444;28;20037;-63
2024/04/07 03:32:08;;;;;;;17.50;3.55;;;12.10;99.90;;;;;;5055400;28;20128;-63
2024/04/07 03:34:34;;;;;;;21.80;5.38;;;12.10;99.90;;;;;;5055663;28;20124;-63
2024/04/07 03:36:59;;;;;;;25.55;4.55;;;12.10;99.90;;;;;;5055175;28;20083;-66
2024/04/07 03:39:25;;;;;;;22.63;4.05;;;12.10;99.90;;;;;;5055156;28;20064;-64
2024/04/07 03:41:51;;;;;;;23.73;4.65;;;12.10;99.90;;;;;;5055140;28;20056;-66
2024/04/07 03:44:18;;;;;;;21.30;4.95;;;12.10;99.90;;;;;;5055337;28;20462;-64
2024/04/07 03:46:43;;;;;;;28.00;5.35;;;12.00;99.90;;;;;;5055071;28;20055;-65
2024/04/07 03:49:09;;;;;;;24.45;4.88;;;12.00;99.90;;;;;;5055116;28;20037;-65
2024/04/07 03:51:35;;;;;;;21.15;4.22;;;12.00;99.90;;;;;;5055192;28;20437;-65
2024/04/07 03:54:01;;;;;;;17.20;4.03;;;12.10;99.90;;;;;;5038107;28;20473;-64
2024/04/07 03:56:28;;;;;;;23.75;4.53;;;12.10;99.90;;;;;;5054959;28;20057;-65
2024/04/07 03:58:53;;;;;;;28.40;4.50;;;12.10;99.90;;;;;;5055267;28;20386;-64
2024/04/07 04:01:19;;;;;;;23.50;4.35;;;12.20;99.90;;;;;;5055024;28;20068;-64
2024/04/07 04:03:45;;;;;;;23.80;4.20;;;12.20;99.90;;;;;;5054765;28;20052;-64
2024/04/07 04:06:11;;;;;;;24.02;4.28;;;12.10;99.90;;;;;;5054537;28;20166;-64
2024/04/07 04:08:36;;;;;;;26.33;5.25;;;12.10;99.90;;;;;;5055025;28;20075;-64
2024/04/07 04:11:03;;;;;;;25.13;4.05;;;12.10;99.90;;;;;;5054456;28;20128;-63
2024/04/07 04:13:29;;;;;;;18.95;3.97;;;12.10;99.90;;;;;;5054956;28;20123;-63
2024/04/07 04:15:54;;;;;;;19.42;3.97;;;12.10;99.90;;;;;;5054145;28;20060;-63
2024/04/07 04:18:20;;;;;;;20.83;3.95;;;12.10;99.90;;;;;;5054736;28;20076;-63
2024/04/07 04:20:46;;;;;;;19.73;4.15;;;12.10;99.90;;;;;;5054744;28;20056;-64
2024/04/07 04:23:12;;;;;;;21.13;4.10;;;12.10;99.90;;;;;;5054776;28;20524;-63
2024/04/07 04:25:38;;;;;;;23.90;4.45;;;12.00;99.90;;;;;;5054215;28;20095;-64
2024/04/07 04:28:04;;;;;;;19.70;4.43;;;12.00;99.90;;;;;;5054388;28;20486;-62
2024/04/07 04:30:29;;;;;;;25.98;4.63;;;12.00;99.90;;;;;;5054243;28;20135;-63
2024/04/07 04:32:57;;;;;;;22.85;4.38;;;11.90;99.90;;;;;;5054214;28;20144;-63
2024/04/07 04:35:23;;;;;;;24.52;4.03;;;11.90;99.90;;;;;;5053949;28;20073;-63
2024/04/07 04:37:49;;;;;;;21.33;4.25;;;11.90;99.90;;;;;;5054084;28;20087;-64
2024/04/07 04:40:15;;;;;;;23.35;4.05;;;11.90;99.90;;;;;;5054342;28;20029;-67
2024/04/07 04:42:41;;;;;;;28.23;4.63;;;11.90;99.90;;;;;;5037271;28;20037;-69
2024/04/07 04:45:06;;;;;;;20.95;4.10;;;11.90;99.90;;;;;;5053972;28;20103;-67
2024/04/07 04:47:32;;;;;;;21.10;3.58;;;11.80;99.90;;;;;;5053872;28;20044;-67
2024/04/07 04:49:58;;;;;;;20.60;4.15;;;11.80;99.90;;;;;;5053887;28;20067;-67
2024/04/07 04:52:24;;;;;;;24.77;4.88;;;11.80;99.90;;;;;;5054181;28;20458;-68
2024/04/07 04:54:49;;;;;;;21.40;4.15;;;11.70;99.90;;;;;;5053858;28;20037;-67
2024/04/07 04:57:15;;;;;;;26.85;4.50;;;11.70;99.90;;;;;;5053437;28;20076;-67
2024/04/07 04:59:41;;;;;;;27.95;4.35;;;11.70;99.90;;;;;;5053836;28;20037;-67
2024/04/07 05:02:07;;;;;;;23.08;4.47;;;11.70;99.90;;;;;;5053579;28;20061;-67
2024/04/07 05:04:32;;;;;;;30.13;4.97;;;11.70;99.90;;;;;;5053748;28;20108;-67
2024/04/07 05:06:58;;;;;;;28.40;4.75;;;11.60;99.90;;;;;;5053323;28;20041;-68
2024/04/07 05:09:24;;;;;;;29.65;4.40;;;11.60;99.90;;;;;;5053210;28;20056;-67
2024/04/07 05:11:50;;;;;;;26.40;3.95;;;11.60;99.90;;;;;;5053668;28;20143;-67
2024/04/07 05:14:15;;;;;;;25.88;3.95;;;11.60;99.90;;;;;;5053534;28;20041;-67
2024/04/07 05:16:41;;;;;;;29.42;5.28;;;11.60;99.90;;;;;;5057717;28;20048;-67
2024/04/07 05:19:07;;;;;;;28.10;4.63;;;11.50;99.90;;;;;;5069111;28;20032;-67
2024/04/07 05:21:33;;;;;;;22.23;4.47;;;11.50;99.90;;;;;;5072792;28;20036;-68
2024/04/07 05:23:59;;;;;;;23.10;4.90;;;11.50;99.90;;;;;;5072491;28;20059;-68
2024/04/07 05:26:24;;;;;;;27.65;5.25;;;11.50;99.90;;;;;;5071666;28;20718;-67
2024/04/07 05:28:50;;;;;;;21.38;3.90;;;11.50;99.90;;;;;;5071640;28;20421;-67
2024/04/07 05:31:16;;;;;;;22.35;4.35;;;11.50;99.90;;;;;;5072521;28;20106;-67
2024/04/07 05:33:42;;;;;;;25.40;4.65;;;11.40;99.90;;;;;;5072546;28;20048;-67
2024/04/07 05:36:07;;;;;;;26.42;4.40;;;11.40;99.90;;;;;;5056336;28;20075;-67
2024/04/07 05:38:33;;;;;;;27.15;4.45;;;11.50;99.90;;;;;;5073056;28;20063;-69
2024/04/07 05:40:59;;;;;;;18.67;3.70;;;11.50;99.90;;;;;;5073192;28;20362;-67
2024/04/07 05:43:25;;;;;;;24.17;4.47;;;11.50;99.90;;;;;;5073137;28;20465;-67
2024/04/07 05:45:50;;;;;;;24.52;4.68;;;11.50;99.90;;;;;;5073141;28;20124;-67
2024/04/07 05:48:16;;;;;;;22.52;4.75;;;11.50;99.90;;;;;;5072216;28;20036;-67
2024/04/07 05:50:42;;;;;;;23.40;4.18;;;11.60;99.90;;;;;;5072087;28;20135;-67
2024/04/07 05:53:08;;;;;;;23.80;4.45;;;11.60;99.90;;;;;;5056308;28;20041;-67
2024/04/07 05:55:33;;;;;;;28.05;4.72;;;11.60;99.90;;;;;;5071927;28;20087;-68
2024/04/07 05:57:59;;;;;;;20.50;3.78;;;11.60;99.90;;;;;;5072817;28;20075;-67
2024/04/07 06:00:25;;;;;;;19.15;4.20;;;11.60;99.90;;;;;;5072675;28;20032;-67
2024/04/07 06:02:51;;;;;;;22.85;4.05;;;11.50;99.90;;;;;;5072379;28;20040;-65
2024/04/07 06:05:17;;;;;;;21.70;4.75;;;11.60;99.90;;;;;;5072704;28;20086;-65
2024/04/07 06:07:43;;;;;;;24.90;3.97;;;11.60;99.90;;;;;;5072736;28;20036;-63
2024/04/07 06:10:08;;;;;;;25.17;4.60;;;11.60;99.90;;;;;;5072693;28;20493;-63
2024/04/07 06:12:34;;;;;;;24.80;4.75;;;11.60;99.90;;;;;;5072574;28;20040;-63
2024/04/07 06:15:00;;;;;;;21.75;4.05;;;11.60;99.90;;;;;;5072371;28;20079;-63
2024/04/07 06:17:26;;;;;;;25.35;4.20;;;11.60;99.90;;;;;;5072103;28;20079;-63
2024/04/07 06:19:51;;;;;;;25.42;3.83;;;11.70;99.90;;;;;;5072661;28;20569;-63
2024/04/07 06:22:18;;;;;;;21.48;3.95;;;11.70;99.90;;;;;;5056173;28;20048;-61
2024/04/07 06:24:45;;;;;;;25.27;3.88;;;11.70;99.90;;;;;;5072096;28;20401;-61
2024/04/07 06:27:11;;;;;;;20.40;4.40;;;11.80;99.90;;;;;;5072632;28;20093;-62
2024/04/07 06:29:37;;;;;;;21.13;4.05;;;11.80;99.90;;;;;;5072330;28;20102;-61
2024/04/07 06:32:03;;;;;;;22.98;4.15;;;11.80;99.90;;;;;;5072824;28;20485;-66
2024/04/07 06:34:30;;;;;;;25.23;4.43;;;11.90;99.90;;;;;;5072058;28;20401;-62
2024/04/07 06:36:55;;;;;;;24.35;4.45;;;11.90;99.90;;;;;;5072397;28;20041;-63
2024/04/07 06:39:21;;;;;;;22.67;4.18;;;12.00;99.90;;;;;;5072282;28;20551;-63
2024/04/07 06:41:47;;;;;;;21.63;4.22;;;12.00;99.90;;;;;;5072261;28;20040;-63
2024/04/07 06:44:13;;;;;;;22.67;4.18;;;12.00;99.90;;;;;;5071955;28;20036;-63
2024/04/07 06:46:38;;;;;;;20.42;4.05;;;12.10;99.90;;;;;;5072050;28;20227;-63
2024/04/07 06:49:04;;;;;;;22.13;4.18;;;12.20;99.90;;;;;;5072261;28;20040;-61
2024/04/07 06:51:31;;;;;;;25.67;4.00;;;12.20;99.90;;;;;;5072224;28;20075;-64
2024/04/07 06:53:57;;;;;;;20.15;4.15;;;12.20;99.90;;;;;;5072308;28;20048;-64
2024/04/07 06:56:23;;;;;;;24.70;4.20;;;12.30;99.90;;;;;;5072524;28;20124;-62
2024/04/07 06:58:49;;;;;;;21.23;3.65;;;12.20;99.90;;;;;;5072372;28;20064;-63
2024/04/07 07:01:14;;;;;;;19.63;4.30;;;12.30;99.90;;;;;;5076254;28;20429;-63
2024/04/07 07:03:40;;;;;;;19.67;3.60;;;12.30;99.90;;;;;;5076135;28;20032;-63
2024/04/07 07:06:06;;;;;;;20.38;3.83;;;12.30;99.90;;;;;;5059347;28;20381;-66
2024/04/07 07:08:32;;;;;;;18.58;3.83;;;12.30;99.90;;;;;;5075722;28;20036;-66
2024/04/07 07:11:00;;;;;;;17.90;3.58;;;12.40;99.90;;;;;;5059358;28;20154;-67
2024/04/07 07:13:26;;;;;;;16.38;3.95;;;12.30;99.90;;;;;;5059182;28;20090;-66
2024/04/07 07:15:52;;;;;;;22.58;4.78;;;12.40;99.90;;;;;;5075814;28;20436;-66
2024/04/07 07:18:18;;;;;;;23.48;4.40;;;12.40;99.90;;;;;;5075796;28;20052;-67
2024/04/07 07:20:44;;;;;;;18.63;3.70;;;12.50;99.90;;;;;;5075981;28;20132;-66
2024/04/07 07:23:09;;;;;;;22.75;4.05;;;12.50;99.90;;;;;;5075450;28;20041;-66
2024/04/07 07:25:35;;;;;;;21.67;4.53;;;12.50;99.90;;;;;;5075401;28;20041;-66
2024/04/07 07:28:01;;;;;;;25.08;4.28;;;12.50;99.90;;;;;;5075758;28;20041;-63
2024/04/07 07:30:27;;;;;;;20.35;3.63;;;12.60;99.90;;;;;;5075458;28;20032;-63
2024/04/07 07:32:53;;;;;;;14.77;3.45;;;12.50;99.90;;;;;;5075527;28;20554;-66
2024/04/07 07:35:18;;;;;;;17.02;3.38;;;12.60;99.90;;;;;;5075536;28;20136;-67
2024/04/07 07:37:44;;;;;;;24.88;4.22;;;12.60;99.90;;;;;;5075087;28;20079;-66
2024/04/07 07:40:10;;;;;;;18.35;3.78;;;12.70;99.90;;;;;;5075469;28;20461;-66
2024/04/07 07:42:37;;;;;;;19.55;4.00;;;12.70;99.90;;;;;;5075540;28;20093;-67
2024/04/07 07:45:03;;;;;;;20.02;3.90;;;12.80;99.90;;;;;;5075542;28;20475;-66
2024/04/07 07:47:29;;;;;;;20.83;4.47;;;12.80;99.90;;;;;;5075145;28;20033;-67
2024/04/07 07:49:57;;;;;;;22.92;4.25;;;12.90;99.90;;;;;;5075303;28;20120;-67
2024/04/07 07:52:23;;;;;;;19.20;3.72;;;12.90;99.90;;;;;;5075151;28;20036;-66
2024/04/07 07:54:49;;;;;;;17.45;3.47;;;12.90;99.90;;;;;;5075401;28;20366;-69
2024/04/07 07:57:15;;;;;;;18.67;4.50;;;13.00;99.90;;;;;;5075091;28;20051;-62
2024/04/07 07:59:41;;;;;;;18.90;4.05;;;13.00;99.90;;;;;;5092122;28;20044;-63
2024/04/07 08:02:07;;;;;;;22.50;4.15;;;13.10;99.90;;;;;;5075580;28;20465;-63
2024/04/07 08:04:32;;;;;;;23.63;4.72;;;13.10;99.90;;;;;;5074956;28;20044;-62
2024/04/07 08:06:58;;;;;;;21.20;4.65;;;13.10;99.90;;;;;;5075105;28;20093;-65
2024/04/07 08:09:24;;;;;;;26.25;4.60;;;13.10;99.90;;;;;;5062284;28;20484;-63
2024/04/07 08:11:50;;;;;;;28.92;4.97;;;13.10;99.90;;;;;;5037201;28;20048;-63
2024/04/07 08:14:16;;;;;;;20.15;4.18;;;13.20;99.90;;;;;;5054708;28;20037;-63
2024/04/07 08:16:41;;;;;;;24.95;4.38;;;13.20;99.90;;;;;;5054374;28;20371;-62
2024/04/07 08:19:08;;;;;;;19.08;3.75;;;13.20;99.90;;;;;;5054266;28;20071;-62
2024/04/07 08:21:34;;;;;;;21.13;5.03;;;13.20;99.90;;;;;;5037263;28;20029;-62
2024/04/07 08:24:00;;;;;;;19.13;4.10;;;13.20;99.90;;;;;;5054739;28;20078;-63
2024/04/07 08:26:26;;;;;;;20.05;4.20;;;13.20;99.90;;;;;;5054609;28;20421;-62
2024/04/07 08:28:52;;;;;;;19.95;4.05;;;13.20;99.90;;;;;;5053845;28;20094;-62
2024/04/07 08:31:18;;;;;;;22.10;4.65;;;13.20;99.90;;;;;;5054653;28;20099;-62
2024/04/07 08:33:44;;;;;;;21.98;4.10;;;13.10;99.90;;;;;;5054072;28;20040;-64
2024/04/07 08:36:09;;;;;;;22.63;4.15;;;13.10;99.90;;;;;;5053717;28;20041;-63
2024/04/07 08:38:35;;;;;;;26.05;4.70;;;13.20;99.90;;;;;;5054526;28;20076;-63
2024/04/07 08:41:01;;;;;;;19.35;3.40;;;13.20;99.90;;;;;;5053936;28;20085;-63
2024/04/07 08:43:27;;;;;;;21.58;3.60;;;13.30;99.90;;;;;;5054016;28;20068;-63
2024/04/07 08:45:52;;;;;;;18.70;4.43;;;13.40;99.90;;;;;;5053671;28;20051;-63
2024/04/07 08:48:18;;;;;;;18.45;4.18;;;13.40;99.90;;;;;;5054287;28;20371;-63
2024/04/07 08:50:44;;;;;;;22.17;4.25;;;13.60;99.90;;;;;;5054059;28;20043;-61
2024/04/07 08:53:10;;;;;;;15.23;3.55;;;13.60;99.90;;;;;;5053472;28;20036;-61
2024/04/07 08:55:36;;;;;;;17.55;4.15;;;13.60;99.90;;;;;;5036979;28;20040;-62
2024/04/07 08:58:03;;;;;;;23.02;4.18;;;13.60;99.90;;;;;;5053458;28;20118;-62
2024/04/07 09:00:29;;;;;;;16.23;3.90;;;13.70;99.90;;;;;;5053915;28;20067;-61
2024/04/07 09:02:54;;;;;;;22.90;4.32;;;13.80;99.90;;;;;;5053560;28;20063;-62
2024/04/07 09:05:20;;;;;;;20.17;4.60;;;13.80;99.90;;;;;;5069965;28;20045;-61
2024/04/07 09:07:46;;;;;;;19.48;4.07;;;13.90;99.90;;;;;;5053628;28;20037;-62
2024/04/07 09:10:12;;;;;;;20.80;4.15;;;13.90;99.90;;;;;;5054147;28;20368;-62
2024/04/07 09:12:38;;;;;;;21.75;3.95;;;13.90;99.90;;;;;;5054021;28;20041;-63
2024/04/07 09:15:04;;;;;;;23.50;4.00;;;14.00;99.90;;;;;;5036779;28;20037;-68
2024/04/07 09:17:29;;;;;;;22.33;3.88;;;14.10;99.90;;;;;;5053143;28;20049;-68
2024/04/07 09:19:55;;;;;;;22.42;4.15;;;14.10;99.90;;;;;;5070197;28;20068;-68
2024/04/07 09:22:22;;;;;;;21.38;4.13;;;14.10;99.90;;;;;;5052245;28;20056;-69
2024/04/07 09:24:48;;;;;;;18.17;4.05;;;14.20;99.90;;;;;;5053445;28;20037;-68
2024/04/07 09:27:16;;;;;;;23.92;4.50;;;14.20;99.90;;;;;;5052557;28;20064;-68
2024/04/07 09:29:42;;;;;;;20.38;4.50;;;14.20;99.90;;;;;;5053229;28;20474;-68
2024/04/07 09:32:07;;;;;;;20.05;3.65;;;14.20;99.90;;;;;;5052954;28;20049;-67
2024/04/07 09:34:35;;;;;;;19.08;3.95;;;14.20;99.90;;;;;;5053288;28;20087;-65
2024/04/07 09:37:01;;;;;;;17.00;3.75;;;14.20;99.90;;;;;;5052754;28;20072;-65
2024/04/07 09:39:27;;;;;;;22.58;4.43;;;14.20;99.90;;;;;;5053010;28;20111;-65
2024/04/07 09:41:53;;;;;;;21.85;4.72;;;14.30;99.90;;;;;;5052564;28;20040;-65
2024/04/07 09:44:19;;;;;;;18.27;3.83;;;14.40;99.90;;;;;;5053113;28;20044;-67
2024/04/07 09:46:44;;;;;;;22.77;4.53;;;14.50;99.90;;;;;;5053070;28;20068;-67
2024/04/07 09:49:10;;;;;;;17.10;4.15;;;14.50;99.90;;;;;;5053185;28;20044;-67
2024/04/07 09:51:36;;;;;;;17.27;4.10;;;14.50;99.90;;;;;;5052764;28;20037;-68
2024/04/07 09:54:02;;;;;;;19.33;4.00;;;14.50;99.90;;;;;;5053115;28;20374;-68
2024/04/07 09:56:27;;;;;;;20.67;4.53;;;14.50;99.90;;;;;;5052762;28;20414;-68
2024/04/07 09:58:53;;;;;;;20.15;3.95;;;14.60;99.90;;;;;;5052805;28;20045;-67
2024/04/07 10:01:21;;;;;;;22.55;3.90;;;14.50;99.90;;;;;;5052711;28;20037;-67
2024/04/07 10:03:47;;;;;;;22.05;4.22;;;14.50;99.90;;;;;;5052559;28;20041;-67
2024/04/07 10:06:13;;;;;;;20.20;4.40;;;14.60;99.90;;;;;;5052351;28;20063;-67
2024/04/07 10:08:39;;;;;;;16.98;4.03;;;14.60;99.90;;;;;;5053094;28;20121;-66
2024/04/07 10:11:05;;;;;;;18.00;4.05;;;14.60;99.90;;;;;;5052530;28;20093;-65
2024/04/07 10:13:30;;;;;;;21.83;4.00;;;14.80;99.90;;;;;;5052429;28;20048;-61
2024/04/07 10:15:58;;;;;;;20.40;4.43;;;14.80;99.90;;;;;;5052362;28;20037;-61
2024/04/07 10:18:24;;;;;;;20.55;4.22;;;14.90;99.90;;;;;;5051811;28;20057;-65
2024/04/07 10:20:53;;;;;;;18.90;3.75;;;15.00;99.90;;;;;;5052300;28;20116;-68
2024/04/07 10:23:19;;;;;;;14.27;3.42;;;15.00;99.90;;;;;;5052071;28;20037;-68
2024/04/07 10:25:45;;;;;;;16.17;4.10;;;14.90;99.90;;;;;;5051768;28;20047;-69
2024/04/07 10:28:11;;;;;;;17.98;3.50;;;14.80;99.90;;;;;;5052386;28;20037;-62
2024/04/07 10:30:37;;;;;;;15.32;3.50;;;14.80;99.90;;;;;;5052846;28;20049;-61
2024/04/07 10:33:04;;;;;;;23.25;4.90;;;14.90;99.90;;;;;;5052590;28;20044;-61
2024/04/07 10:35:30;;;;;;;17.77;3.75;;;14.90;99.90;;;;;;5055754;28;20045;-61
2024/04/07 10:37:56;;;;;;;19.45;3.42;;;15.10;99.90;;;;;;5055644;28;20037;-67
2024/04/07 10:40:21;;;;;;;15.13;3.67;;;15.20;99.90;;;;;;5056485;28;20083;-66
2024/04/07 10:42:47;;;;;;;18.17;3.85;;;15.30;99.90;;;;;;5055244;28;20112;-60
2024/04/07 10:45:13;;;;;;;20.98;4.05;;;15.40;99.90;;;;;;5072441;28;20087;-60
2024/04/07 10:47:39;;;;;;;19.85;3.65;;;15.50;99.90;;;;;;5072762;28;20032;-59
2024/04/07 10:50:05;;;;;;;18.77;4.22;;;15.40;99.90;;;;;;5056227;28;20060;-60
2024/04/07 10:52:31;;;;;;;15.45;3.95;;;15.40;99.90;;;;;;5067296;28;20029;-61
2024/04/07 10:54:57;;;;;;;17.77;4.30;;;15.40;99.90;;;;;;5060944;28;20060;-61
2024/04/07 10:57:23;;;;;;;17.75;3.92;;;15.40;99.90;;;;;;5040914;28;20436;-61
2024/04/07 10:59:49;;;;;;;17.60;4.15;;;15.40;99.90;;;;;;5056056;28;20486;-61
2024/04/07 11:02:15;;;;;;;19.98;4.13;;;15.60;99.90;;;;;;5055689;28;20048;-61
2024/04/07 11:04:41;;;;;;;18.73;3.92;;;15.70;99.90;;;;;;5056140;28;20037;-61
2024/04/07 11:07:07;;;;;;;19.45;4.68;;;15.70;99.90;;;;;;5055914;28;20112;-61
2024/04/07 11:09:35;;;;;;;18.48;3.90;;;15.60;99.90;;;;;;5055787;28;20037;-61
2024/04/07 11:12:02;;;;;;;17.38;3.47;;;15.60;99.90;;;;;;5055850;28;20063;-61
2024/04/07 11:14:28;;;;;;;20.63;4.40;;;15.50;99.90;;;;;;5055605;28;20091;-61
2024/04/07 11:16:54;;;;;;;19.25;4.18;;;15.50;99.90;;;;;;5055519;28;20052;-61
2024/04/07 11:19:20;;;;;;;21.65;4.35;;;15.60;99.90;;;;;;5055784;28;20037;-61
2024/04/07 11:21:45;;;;;;;23.33;4.70;;;15.60;99.90;;;;;;5055683;28;20452;-66
2024/04/07 11:24:11;;;;;;;16.10;3.60;;;15.70;99.90;;;;;;5055498;28;20052;-66
2024/04/07 11:26:37;;;;;;;20.35;4.30;;;15.70;99.90;;;;;;5055491;28;20470;-61
2024/04/07 11:29:03;;;;;;;20.58;4.55;;;15.80;99.90;;;;;;5055455;28;20501;-62
2024/04/07 11:31:29;;;;;;;18.48;3.95;;;15.80;99.90;;;;;;5055245;28;20037;-66
2024/04/07 11:33:54;;;;;;;19.15;3.72;;;15.80;99.90;;;;;;5055371;28;20047;-68
2024/04/07 11:36:20;;;;;;;15.13;4.03;;;15.90;99.90;;;;;;5055196;28;20065;-61
2024/04/07 11:38:46;;;;;;;16.98;3.70;;;15.80;99.90;;;;;;5055685;28;20375;-66
2024/04/07 11:41:12;;;;;;;21.88;4.63;;;15.70;99.90;;;;;;5055455;28;20082;-64
2024/04/07 11:43:37;;;;;;;17.20;4.00;;;15.70;99.90;;;;;;5055041;28;20060;-66
2024/04/07 11:46:03;;;;;;;17.20;3.25;;;15.80;99.90;;;;;;5053878;28;20037;-68
2024/04/07 11:48:29;;;;;;;16.35;4.03;;;15.90;99.90;;;;;;5054726;28;20048;-62
2024/04/07 11:50:55;;;;;;;17.70;3.70;;;15.90;99.90;;;;;;5055000;28;20139;-67
2024/04/07 11:53:21;;;;;;;15.68;3.97;;;15.80;99.90;;;;;;5054859;28;20112;-63
2024/04/07 11:55:46;;;;;;;16.85;4.13;;;15.90;99.90;;;;;;5055104;28;20041;-64
2024/04/07 11:58:12;;;;;;;19.13;3.60;;;16.00;99.90;;;;;;5054411;28;20498;-62
2024/04/07 12:00:38;;;;;;;17.25;4.15;;;16.00;99.90;;;;;;5038380;28;20082;-63
2024/04/07 12:03:04;;;;;;;16.38;3.55;;;16.00;99.90;;;;;;5055018;28;20442;-63
2024/04/07 12:05:30;;;;;;;17.70;4.72;;;16.00;99.90;;;;;;5054700;28;20033;-63
2024/04/07 12:07:56;;;;;;;18.70;3.78;;;16.00;99.90;;;;;;5038432;28;20384;-64
2024/04/07 12:10:22;;;;;;;16.80;4.40;;;16.00;99.90;;;;;;5054403;28;20040;-63
2024/04/07 12:12:47;;;;;;;14.63;3.72;;;16.10;99.90;;;;;;5055086;28;20037;-63
2024/04/07 12:15:13;;;;;;;19.75;4.07;;;16.10;99.90;;;;;;5054282;28;20489;-62
2024/04/07 12:17:40;;;;;;;20.73;4.03;;;16.00;99.90;;;;;;5054200;28;20049;-62
2024/04/07 12:20:07;;;;;;;15.98;3.40;;;15.90;99.90;;;;;;5054254;28;20041;-62
2024/04/07 12:22:33;;;;;;;13.50;3.55;;;15.90;99.90;;;;;;5054825;28;20068;-62
2024/04/07 12:24:59;;;;;;;20.17;3.50;;;16.10;99.90;;;;;;5054820;28;20044;-62
2024/04/07 12:27:25;;;;;;;19.02;4.15;;;16.10;99.90;;;;;;5054378;28;20040;-63
2024/04/07 12:29:50;;;;;;;16.88;3.70;;;16.00;99.90;;;;;;5054219;28;20044;-63